createdAt,value
2022-09-28T00:00:54.955Z,2.20
2022-09-28T00:01:57.136Z,4.40
2022-09-28T00:02:59.978Z,2.58
2022-09-28T00:04:02.191Z,2.97
2022-09-28T00:05:04.633Z,3.40
2022-09-28T00:06:10.070Z,1.67
2022-09-28T00:07:12.436Z,1.30
2022-09-28T00:08:14.645Z,2.38
2022-09-28T00:09:17.638Z,1.92
2022-09-28T00:10:22.844Z,1.80
2022-09-28T00:11:28.244Z,3.38
2022-09-28T00:12:31.461Z,4.93
2022-09-28T00:13:34.167Z,3.92
2022-09-28T00:14:37.066Z,4.13
2022-09-28T00:15:39.234Z,2.95
2022-09-28T00:16:43.628Z,2.92
2022-09-28T00:17:45.810Z,3.45
2022-09-28T00:18:49.711Z,3.00
2022-09-28T00:19:51.966Z,7.15
2022-09-28T00:21:02.336Z,2.95
2022-09-28T00:22:04.548Z,2.40
2022-09-28T00:23:06.669Z,3.47
2022-09-28T00:24:17.275Z,2.65
2022-09-28T00:25:22.007Z,3.17
2022-09-28T00:26:24.625Z,3.00
2022-09-28T00:27:26.790Z,3.40
2022-09-28T00:28:28.936Z,2.75
2022-09-28T00:29:36.603Z,3.50
2022-09-28T00:30:38.746Z,2.60
2022-09-28T00:31:40.963Z,3.10
2022-09-28T00:32:43.178Z,4.07
2022-09-28T00:33:45.350Z,4.78
2022-09-28T00:34:48.846Z,2.15
2022-09-28T00:35:58.808Z,3.50
2022-09-28T00:37:02.723Z,4.47
2022-09-28T00:38:04.837Z,4.45
2022-09-28T00:39:08.382Z,3.55
2022-09-28T00:40:10.614Z,2.10
2022-09-28T00:41:14.397Z,2.40
2022-09-28T00:42:22.468Z,2.53
2022-09-28T00:43:25.204Z,2.70
2022-09-28T00:44:34.193Z,6.68
2022-09-28T00:45:36.394Z,4.93
2022-09-28T00:46:38.557Z,5.45
2022-09-28T00:47:54.803Z,4.03
2022-09-28T00:49:08.783Z,2.70
2022-09-28T00:50:10.841Z,4.38
2022-09-28T00:51:13.476Z,2.97
2022-09-28T00:52:31.002Z,5.07
2022-09-28T00:53:37.019Z,2.17
2022-09-28T00:54:40.502Z,2.47
2022-09-28T00:55:48.379Z,2.75
2022-09-28T00:56:51.265Z,4.13
2022-09-28T00:57:56.840Z,4.25
2022-09-28T00:58:59.924Z,4.15
2022-09-28T01:00:04.435Z,3.58
2022-09-28T01:01:07.102Z,3.15
2022-09-28T01:02:10.591Z,2.35
2022-09-28T01:03:14.297Z,2.63
2022-09-28T01:04:17.441Z,5.30
2022-09-28T01:05:21.083Z,3.95
2022-09-28T01:06:27.637Z,3.58
2022-09-28T01:07:32.747Z,4.85
2022-09-28T01:08:36.237Z,3.88
2022-09-28T01:09:40.582Z,5.13
2022-09-28T01:10:43.785Z,2.88
2022-09-28T01:11:46.533Z,8.55
2022-09-28T01:12:48.725Z,1.95
2022-09-28T01:13:54.421Z,4.32
2022-09-28T01:14:57.973Z,3.92
2022-09-28T01:16:21.629Z,2.65
2022-09-28T01:17:49.199Z,2.28
2022-09-28T01:19:06.963Z,3.58
2022-09-28T01:20:28.980Z,2.80
2022-09-28T01:21:45.452Z,3.65
2022-09-28T01:23:12.972Z,4.70
2022-09-28T01:24:29.323Z,2.22
2022-09-28T01:25:31.702Z,2.85
2022-09-28T01:26:47.614Z,2.83
2022-09-28T01:27:54.503Z,4.07
2022-09-28T01:29:05.546Z,4.40
2022-09-28T01:30:12.070Z,2.70
2022-09-28T01:31:16.180Z,3.72
2022-09-28T01:32:27.970Z,3.40
2022-09-28T01:33:39.350Z,3.22
2022-09-28T01:34:49.562Z,2.58
2022-09-28T01:36:13.902Z,4.20
2022-09-28T01:37:20.002Z,3.58
2022-09-28T01:38:42.957Z,5.15
2022-09-28T01:39:48.842Z,2.85
2022-09-28T01:40:53.047Z,2.25
2022-09-28T01:42:00.786Z,5.28
2022-09-28T01:43:11.008Z,4.43
2022-09-28T01:45:26.046Z,2.75
2022-09-28T01:46:36.467Z,2.50
2022-09-28T01:47:40.523Z,3.20
2022-09-28T01:48:56.300Z,1.55
2022-09-28T01:50:09.550Z,2.45
2022-09-28T01:51:21.538Z,3.03
2022-09-28T01:52:33.897Z,4.53
2022-09-28T01:53:40.906Z,4.03
2022-09-28T01:55:15.214Z,4.28
2022-09-28T01:56:29.795Z,3.10
2022-09-28T01:57:48.682Z,2.72
2022-09-28T01:58:56.659Z,3.35
2022-09-28T02:00:06.239Z,2.53
2022-09-28T02:01:36.299Z,6.25
2022-09-28T02:02:56.200Z,2.50
2022-09-28T02:04:14.568Z,2.22
2022-09-28T02:05:32.819Z,3.50
2022-09-28T02:06:40.511Z,3.35
2022-09-28T02:07:53.820Z,3.08
2022-09-28T02:09:02.109Z,3.78
2022-09-28T02:10:25.577Z,3.50
2022-09-28T02:11:27.984Z,3.90
2022-09-28T02:12:42.884Z,6.10
2022-09-28T02:13:50.565Z,7.03
2022-09-28T02:14:59.593Z,3.65
2022-09-28T02:16:16.529Z,3.97
2022-09-28T02:17:18.719Z,3.60
2022-09-28T02:18:22.819Z,3.15
2022-09-28T02:19:27.737Z,5.03
2022-09-28T02:20:32.731Z,4.45
2022-09-28T02:21:53.749Z,3.70
2022-09-28T02:24:06.997Z,3.90
2022-09-28T02:25:20.913Z,4.35
2022-09-28T02:26:29.590Z,2.70
2022-09-28T02:27:38.117Z,2.83
2022-09-28T02:28:40.348Z,5.53
2022-09-28T02:29:42.695Z,3.47
2022-09-28T02:30:45.611Z,2.65
2022-09-28T02:31:50.149Z,3.50
2022-09-28T02:32:57.047Z,3.22
2022-09-28T02:33:59.205Z,5.15
2022-09-28T02:35:01.698Z,4.18
2022-09-28T02:36:04.398Z,4.57
2022-09-28T02:37:12.225Z,2.60
2022-09-28T02:38:14.937Z,3.47
2022-09-28T02:39:19.019Z,3.10
2022-09-28T02:40:28.872Z,5.88
2022-09-28T02:41:50.460Z,5.90
2022-09-28T02:43:09.335Z,2.95
2022-09-28T02:44:17.309Z,3.15
2022-09-28T02:45:29.274Z,4.57
2022-09-28T02:46:51.897Z,7.63
2022-09-28T02:48:42.689Z,4.65
2022-09-28T02:50:12.095Z,10.93
2022-09-28T02:51:26.221Z,3.42
2022-09-28T02:52:43.379Z,4.88
2022-09-28T02:54:11.955Z,4.07
2022-09-28T02:55:18.882Z,4.47
2022-09-28T02:56:54.428Z,4.97
2022-09-28T02:58:14.979Z,2.53
2022-09-28T02:59:41.529Z,4.93
2022-09-28T03:01:28.368Z,3.42
2022-09-28T03:02:37.118Z,2.53
2022-09-28T03:03:50.645Z,4.25
2022-09-28T03:05:16.206Z,2.90
2022-09-28T03:06:33.464Z,3.08
2022-09-28T03:07:40.474Z,7.47
2022-09-28T03:08:56.662Z,5.80
2022-09-28T03:10:13.691Z,4.57
2022-09-28T03:11:22.899Z,4.25
2022-09-28T03:12:29.339Z,2.85
2022-09-28T03:13:32.593Z,8.80
2022-09-28T03:14:34.950Z,3.80
2022-09-28T03:15:37.609Z,3.97
2022-09-28T03:16:43.594Z,2.95
2022-09-28T03:17:46.172Z,4.28
2022-09-28T03:18:49.237Z,5.80
2022-09-28T03:19:51.629Z,3.53
2022-09-28T03:20:53.864Z,4.40
2022-09-28T03:21:56.481Z,3.22
2022-09-28T03:23:23.452Z,2.58
2022-09-28T03:24:20.744Z,5.60
2022-09-28T03:25:23.218Z,2.60
2022-09-28T03:26:25.350Z,3.15
2022-09-28T03:27:27.572Z,4.82
2022-09-28T03:28:29.898Z,4.07
2022-09-28T03:29:34.398Z,3.70
2022-09-28T03:30:39.799Z,4.13
2022-09-28T03:31:42.040Z,4.20
2022-09-28T03:32:44.353Z,2.47
2022-09-28T03:33:46.742Z,4.55
2022-09-28T03:34:49.228Z,3.70
2022-09-28T03:35:51.738Z,4.00
2022-09-28T03:36:54.098Z,6.55
2022-09-28T03:37:57.074Z,12.40
2022-09-28T03:39:01.142Z,2.42
2022-09-28T03:40:04.334Z,4.22
2022-09-28T03:41:08.088Z,4.35
2022-09-28T03:42:12.327Z,6.07
2022-09-28T03:43:18.577Z,6.72
2022-09-28T03:44:20.932Z,3.53
2022-09-28T03:45:23.634Z,3.90
2022-09-28T03:46:27.372Z,4.18
2022-09-28T03:47:32.710Z,5.13
2022-09-28T03:48:36.323Z,3.22
2022-09-28T03:49:38.470Z,5.80
2022-09-28T03:50:40.635Z,3.00
2022-09-28T03:51:45.005Z,3.47
2022-09-28T03:52:47.147Z,8.02
2022-09-28T03:53:49.372Z,4.60
2022-09-28T03:54:51.495Z,3.35
2022-09-28T03:55:53.687Z,5.38
2022-09-28T03:56:56.258Z,4.15
2022-09-28T03:57:58.406Z,6.25
2022-09-28T03:59:03.687Z,3.58
2022-09-28T04:00:06.205Z,3.88
2022-09-28T04:01:17.681Z,4.55
2022-09-28T04:02:21.617Z,4.72
2022-09-28T04:03:23.879Z,3.30
2022-09-28T04:04:26.045Z,4.07
2022-09-28T04:05:28.190Z,6.25
2022-09-28T04:06:30.337Z,4.20
2022-09-28T04:07:32.479Z,4.15
2022-09-28T04:08:34.628Z,3.65
2022-09-28T04:09:36.780Z,3.95
2022-09-28T04:10:38.974Z,4.18
2022-09-28T04:11:59.714Z,3.00
2022-09-28T04:13:05.062Z,4.70
2022-09-28T04:14:07.478Z,5.20
2022-09-28T04:15:10.054Z,4.82
2022-09-28T04:16:12.274Z,3.67
2022-09-28T04:17:17.435Z,2.85
2022-09-28T04:18:20.012Z,5.40
2022-09-28T04:19:32.454Z,4.03
2022-09-28T04:21:08.952Z,4.03
2022-09-28T04:22:16.256Z,3.13
2022-09-28T04:23:19.278Z,4.03
2022-09-28T04:24:21.474Z,2.92
2022-09-28T04:25:23.652Z,2.35
2022-09-28T04:26:27.215Z,3.25
2022-09-28T04:27:47.906Z,3.25
2022-09-28T04:29:09.160Z,4.10
2022-09-28T04:30:11.684Z,7.15
2022-09-28T04:31:18.097Z,4.13
2022-09-28T04:32:20.363Z,3.50
2022-09-28T04:33:22.539Z,4.03
2022-09-28T04:34:24.751Z,3.28
2022-09-28T04:35:26.847Z,6.55
2022-09-28T04:36:29.023Z,4.38
2022-09-28T04:37:31.303Z,3.60
2022-09-28T04:38:51.804Z,4.57
2022-09-28T04:39:55.945Z,4.35
2022-09-28T04:40:58.092Z,3.25
2022-09-28T04:42:01.138Z,4.07
2022-09-28T04:43:03.831Z,5.68
2022-09-28T04:44:06.560Z,6.40
2022-09-28T04:45:09.350Z,3.58
2022-09-28T04:46:14.980Z,6.07
2022-09-28T04:47:24.205Z,3.70
2022-09-28T04:48:55.554Z,7.03
2022-09-28T04:50:10.719Z,5.90
2022-09-28T04:51:33.178Z,5.32
2022-09-28T04:52:37.483Z,3.80
2022-09-28T04:53:39.789Z,3.80
2022-09-28T04:54:42.115Z,3.63
2022-09-28T04:55:45.005Z,3.05
2022-09-28T04:56:47.270Z,3.08
2022-09-28T04:57:49.765Z,3.38
2022-09-28T04:58:52.980Z,4.50
2022-09-28T04:59:55.597Z,3.35
2022-09-28T05:01:00.270Z,4.90
2022-09-28T05:02:21.031Z,4.55
2022-09-28T05:03:50.208Z,4.55
2022-09-28T05:05:02.141Z,4.00
2022-09-28T05:06:16.068Z,4.90
2022-09-28T05:07:20.047Z,5.43
2022-09-28T05:08:22.493Z,4.63
2022-09-28T05:09:24.613Z,3.95
2022-09-28T05:10:27.359Z,3.35
2022-09-28T05:11:29.567Z,5.80
2022-09-28T05:12:32.311Z,5.45
2022-09-28T05:13:41.833Z,4.60
2022-09-28T05:14:44.034Z,5.82
2022-09-28T05:15:46.236Z,3.35
2022-09-28T05:16:49.486Z,5.82
2022-09-28T05:17:57.329Z,3.97
2022-09-28T05:19:16.874Z,3.80
2022-09-28T05:20:19.204Z,4.60
2022-09-28T05:21:21.584Z,5.78
2022-09-28T05:22:23.691Z,4.80
2022-09-28T05:23:25.918Z,8.00
2022-09-28T05:24:30.946Z,5.53
2022-09-28T05:25:34.301Z,6.95
2022-09-28T05:26:52.194Z,6.35
2022-09-28T05:27:56.470Z,5.50
2022-09-28T05:29:10.388Z,3.78
2022-09-28T05:30:15.556Z,4.57
2022-09-28T05:31:49.978Z,5.43
2022-09-28T05:33:10.182Z,5.25
2022-09-28T05:34:23.058Z,6.63
2022-09-28T05:35:25.190Z,7.05
2022-09-28T05:36:27.869Z,5.70
2022-09-28T05:37:31.084Z,6.63
2022-09-28T05:38:33.346Z,5.32
2022-09-28T05:39:36.604Z,5.93
2022-09-28T05:40:38.756Z,6.38
2022-09-28T05:41:40.928Z,4.50
2022-09-28T05:42:43.367Z,7.05
2022-09-28T05:43:45.724Z,4.53
2022-09-28T05:44:47.924Z,5.88
2022-09-28T05:45:55.047Z,5.80
2022-09-28T05:46:57.941Z,6.22
2022-09-28T05:48:00.206Z,4.85
2022-09-28T05:49:03.665Z,9.55
2022-09-28T05:50:07.982Z,9.18
2022-09-28T05:51:10.319Z,5.38
2022-09-28T05:52:12.523Z,5.95
2022-09-28T05:53:15.026Z,8.13
2022-09-28T05:54:17.348Z,7.32
2022-09-28T05:55:21.904Z,7.63
2022-09-28T05:56:24.025Z,9.48
2022-09-28T05:57:27.614Z,5.05
2022-09-28T05:58:29.746Z,7.47
2022-09-28T05:59:35.194Z,7.10
2022-09-28T06:00:37.529Z,9.30
2022-09-28T06:01:39.716Z,7.70
2022-09-28T06:02:44.624Z,8.90
2022-09-28T06:03:48.450Z,10.45
2022-09-28T06:04:51.211Z,7.75
2022-09-28T06:05:53.334Z,8.07
2022-09-28T06:06:56.063Z,7.25
2022-09-28T06:07:59.432Z,6.88
2022-09-28T06:09:01.565Z,9.60
2022-09-28T06:10:07.147Z,10.80
2022-09-28T06:11:16.134Z,10.70
2022-09-28T06:12:18.335Z,6.20
2022-09-28T06:13:25.251Z,7.80
2022-09-28T06:14:27.482Z,8.13
2022-09-28T06:15:32.410Z,7.78
2022-09-28T06:16:38.271Z,9.50
2022-09-28T06:17:44.360Z,8.70
2022-09-28T06:19:05.066Z,8.50
2022-09-28T06:20:34.557Z,10.65
2022-09-28T06:21:52.787Z,9.70
2022-09-28T06:22:55.375Z,8.00
2022-09-28T06:23:57.609Z,9.93
2022-09-28T06:25:00.853Z,7.50
2022-09-28T06:26:03.074Z,9.10
2022-09-28T06:27:05.838Z,8.95
2022-09-28T06:28:11.082Z,9.68
2022-09-28T06:29:19.725Z,11.45
2022-09-28T06:30:24.193Z,9.15
2022-09-28T06:31:30.026Z,12.68
2022-09-28T06:32:32.301Z,11.40
2022-09-28T06:33:35.697Z,9.70
2022-09-28T06:34:37.832Z,13.30
2022-09-28T06:35:40.721Z,12.43
2022-09-28T06:36:42.868Z,13.00
2022-09-28T06:37:45.424Z,10.98
2022-09-28T06:38:47.812Z,11.35
2022-09-28T06:39:50.347Z,13.88
2022-09-28T06:40:52.538Z,8.73
2022-09-28T06:41:54.883Z,13.18
2022-09-28T06:43:10.658Z,17.42
2022-09-28T06:44:32.286Z,17.42
2022-09-28T06:45:57.273Z,19.58
2022-09-28T06:47:19.612Z,16.02
2022-09-28T06:48:56.845Z,17.13
2022-09-28T06:50:17.267Z,22.13
2022-09-28T06:51:42.109Z,19.13
2022-09-28T06:52:54.825Z,21.55
2022-09-28T06:54:25.794Z,16.95
2022-09-28T06:55:57.435Z,20.55
2022-09-28T06:56:59.591Z,22.80
2022-09-28T06:58:07.438Z,24.52
2022-09-28T06:59:11.025Z,25.10
2022-09-28T07:00:14.702Z,19.42
2022-09-28T07:01:19.939Z,21.05
2022-09-28T07:02:33.003Z,22.33
2022-09-28T07:04:09.994Z,24.63
2022-09-28T07:05:53.964Z,32.03
2022-09-28T07:07:16.551Z,20.48
2022-09-28T07:08:26.409Z,24.65
2022-09-28T07:09:51.259Z,23.30
2022-09-28T07:11:17.529Z,22.10
2022-09-28T07:12:26.270Z,18.23
2022-09-28T07:13:51.014Z,18.00
2022-09-28T07:14:57.431Z,21.23
2022-09-28T07:16:02.146Z,19.38
2022-09-28T07:17:13.808Z,21.85
2022-09-28T07:18:17.859Z,20.15
2022-09-28T07:19:20.050Z,17.08
2022-09-28T07:20:22.207Z,20.40
2022-09-28T07:21:30.256Z,19.85
2022-09-28T07:22:42.760Z,17.88
2022-09-28T07:23:53.945Z,20.85
2022-09-28T07:24:59.265Z,20.60
2022-09-28T07:26:14.467Z,17.15
2022-09-28T07:27:37.185Z,19.77
2022-09-28T07:29:05.542Z,17.65
2022-09-28T07:30:35.193Z,18.35
2022-09-28T07:31:49.519Z,16.90
2022-09-28T07:33:17.550Z,17.73
2022-09-28T07:34:28.693Z,19.55
2022-09-28T07:35:35.632Z,17.40
2022-09-28T07:36:39.063Z,23.42
2022-09-28T07:37:41.217Z,16.98
2022-09-28T07:38:44.009Z,20.48
2022-09-28T07:40:05.319Z,18.38
2022-09-28T07:41:14.174Z,19.38
2022-09-28T07:42:22.550Z,18.35
2022-09-28T07:43:25.123Z,19.40
2022-09-28T07:44:29.812Z,21.98
2022-09-28T07:45:35.799Z,21.25
2022-09-28T07:46:38.246Z,19.40
2022-09-28T07:47:45.858Z,22.77
2022-09-28T07:49:09.735Z,19.02
2022-09-28T07:50:53.649Z,23.45
2022-09-28T07:52:28.754Z,25.08
2022-09-28T07:53:44.792Z,22.33
2022-09-28T07:55:07.202Z,24.02
2022-09-28T07:56:28.382Z,24.50
2022-09-28T07:57:41.173Z,25.02
2022-09-28T07:59:09.493Z,25.15
2022-09-28T08:00:14.997Z,26.27
2022-09-28T08:01:19.298Z,27.35
2022-09-28T08:02:22.181Z,26.15
2022-09-28T08:03:25.099Z,25.88
2022-09-28T08:04:28.301Z,27.58
2022-09-28T08:05:32.028Z,26.25
2022-09-28T08:06:34.247Z,27.60
2022-09-28T08:07:38.316Z,28.83
2022-09-28T08:08:44.767Z,32.30
2022-09-28T08:09:48.889Z,22.85
2022-09-28T08:11:03.437Z,28.92
2022-09-28T08:12:40.617Z,24.98
2022-09-28T08:14:03.042Z,27.80
2022-09-28T08:15:36.859Z,25.77
2022-09-28T08:17:02.198Z,25.48
2022-09-28T08:18:13.993Z,21.23
2022-09-28T08:19:16.252Z,26.63
2022-09-28T08:20:37.188Z,28.42
2022-09-28T08:21:45.309Z,24.20
2022-09-28T08:22:47.704Z,24.52
2022-09-28T08:23:50.114Z,23.23
2022-09-28T08:24:52.237Z,24.70
2022-09-28T08:25:54.711Z,29.80
2022-09-28T08:26:59.888Z,27.23
2022-09-28T08:28:08.599Z,28.15
2022-09-28T08:29:20.387Z,21.90
2022-09-28T08:30:22.654Z,22.55
2022-09-28T08:31:38.474Z,22.58
2022-09-28T08:33:00.926Z,23.20
2022-09-28T08:34:18.823Z,21.27
2022-09-28T08:35:45.971Z,19.77
2022-09-28T08:36:56.877Z,21.92
2022-09-28T08:38:22.230Z,19.92
2022-09-28T08:39:42.761Z,21.85
2022-09-28T08:41:18.315Z,21.00
2022-09-28T08:42:52.084Z,17.00
2022-09-28T08:44:23.818Z,20.08
2022-09-28T08:45:59.084Z,23.23
2022-09-28T08:47:52.341Z,20.65
2022-09-28T08:49:24.969Z,18.60
2022-09-28T08:51:10.773Z,19.95
2022-09-28T08:52:26.062Z,19.88
2022-09-28T08:54:21.688Z,19.33
2022-09-28T08:55:32.371Z,19.73
2022-09-28T08:56:47.517Z,22.48
2022-09-28T08:57:52.628Z,23.17
2022-09-28T08:59:01.548Z,18.45
2022-09-28T09:00:09.613Z,21.38
2022-09-28T09:01:18.940Z,23.08
2022-09-28T09:02:27.390Z,24.23
2022-09-28T09:03:39.750Z,21.08
2022-09-28T09:05:20.826Z,19.42
2022-09-28T09:07:25.995Z,19.30
2022-09-28T09:08:54.645Z,21.38
2022-09-28T09:10:26.252Z,25.80
2022-09-28T09:12:08.194Z,18.95
2022-09-28T09:13:31.478Z,24.48
2022-09-28T09:15:11.162Z,21.35
2022-09-28T09:16:41.467Z,20.77
2022-09-28T09:18:22.901Z,20.45
2022-09-28T09:21:47.501Z,24.67
2022-09-28T09:22:56.796Z,22.60
2022-09-28T09:24:12.389Z,21.17
2022-09-28T09:25:38.420Z,22.02
2022-09-28T09:26:43.179Z,22.60
2022-09-28T09:27:59.152Z,18.65
2022-09-28T09:29:25.642Z,23.48
2022-09-28T09:30:43.822Z,18.00
2022-09-28T09:32:16.545Z,26.73
2022-09-28T09:33:52.020Z,18.02
2022-09-28T09:35:15.646Z,19.23
2022-09-28T09:37:17.878Z,21.05
2022-09-28T09:39:12.687Z,18.27
2022-09-28T09:40:58.896Z,20.10
2022-09-28T09:42:53.843Z,17.20
2022-09-28T09:44:44.814Z,16.58
2022-09-28T09:46:20.201Z,15.70
2022-09-28T09:47:54.289Z,15.27
2022-09-28T09:49:18.456Z,16.33
2022-09-28T09:50:29.986Z,20.98
2022-09-28T09:51:45.143Z,15.32
2022-09-28T09:52:51.270Z,14.18
2022-09-28T09:54:01.660Z,14.88
2022-09-28T09:56:24.878Z,14.20
2022-09-28T09:58:04.412Z,15.63
2022-09-28T09:59:28.050Z,13.25
2022-09-28T10:00:44.981Z,11.82
2022-09-28T10:01:56.810Z,13.48
2022-09-28T10:03:23.349Z,12.77
2022-09-28T10:04:30.882Z,16.15
2022-09-28T10:05:37.342Z,14.75
2022-09-28T10:06:42.218Z,14.75
2022-09-28T10:08:16.073Z,10.75
2022-09-28T10:09:34.645Z,13.45
2022-09-28T10:11:12.667Z,12.45
2022-09-28T10:12:20.864Z,10.88
2022-09-28T10:13:23.373Z,12.07
2022-09-28T10:14:31.018Z,12.07
2022-09-28T10:15:47.459Z,11.60
2022-09-28T10:16:57.837Z,9.95
2022-09-28T10:18:21.475Z,12.90
2022-09-28T10:19:43.287Z,10.63
2022-09-28T10:21:04.311Z,12.95
2022-09-28T10:22:22.182Z,10.75
2022-09-28T10:23:30.578Z,9.60
2022-09-28T10:24:32.701Z,9.73
2022-09-28T10:25:38.053Z,10.32
2022-09-28T10:26:44.367Z,12.52
2022-09-28T10:27:52.176Z,10.82
2022-09-28T10:28:59.464Z,9.60
2022-09-28T10:30:10.732Z,12.43
2022-09-28T10:31:35.208Z,10.07
2022-09-28T10:32:45.697Z,11.02
2022-09-28T10:33:47.924Z,10.07
2022-09-28T10:34:52.381Z,8.02
2022-09-28T10:36:00.073Z,9.63
2022-09-28T10:37:09.606Z,10.90
2022-09-28T10:38:35.083Z,9.10
2022-09-28T10:39:49.415Z,11.15
2022-09-28T10:40:54.391Z,10.35
2022-09-28T10:42:08.558Z,8.73
2022-09-28T10:43:25.557Z,8.35
2022-09-28T10:45:46.648Z,7.53
2022-09-28T10:47:00.897Z,8.05
2022-09-28T10:48:12.692Z,10.45
2022-09-28T10:49:18.569Z,8.18
2022-09-28T10:50:28.041Z,8.23
2022-09-28T10:51:40.591Z,9.90
2022-09-28T10:52:46.200Z,8.85
2022-09-28T10:54:19.633Z,6.82
2022-09-28T10:55:28.858Z,7.22
2022-09-28T10:56:37.095Z,8.13
2022-09-28T10:57:42.377Z,6.30
2022-09-28T10:58:46.113Z,9.63
2022-09-28T10:59:54.847Z,8.07
2022-09-28T11:01:12.390Z,6.72
2022-09-28T11:02:35.923Z,8.38
2022-09-28T11:03:55.137Z,7.13
2022-09-28T11:04:59.813Z,8.13
2022-09-28T11:06:07.936Z,9.77
2022-09-28T11:07:46.264Z,8.77
2022-09-28T11:08:50.416Z,8.00
2022-09-28T11:09:55.371Z,9.13
2022-09-28T11:11:19.859Z,12.27
2022-09-28T11:12:43.998Z,6.78
2022-09-28T11:13:50.655Z,10.07
2022-09-28T11:15:04.949Z,6.88
2022-09-28T11:16:08.071Z,8.60
2022-09-28T11:17:32.651Z,7.15
2022-09-28T11:18:35.004Z,8.07
2022-09-28T11:19:42.181Z,8.05
2022-09-28T11:20:45.530Z,8.15
2022-09-28T11:21:47.776Z,9.07
2022-09-28T11:22:56.141Z,7.78
2022-09-28T11:24:19.331Z,9.70
2022-09-28T11:25:25.331Z,8.02
2022-09-28T11:26:35.698Z,10.43
2022-09-28T11:27:37.879Z,8.32
2022-09-28T11:28:42.027Z,8.77
2022-09-28T11:29:58.643Z,6.70
2022-09-28T11:31:11.293Z,8.63
2022-09-28T11:32:44.349Z,7.03
2022-09-28T11:34:31.058Z,9.05
2022-09-28T11:36:12.838Z,9.95
2022-09-28T11:37:23.691Z,8.80
2022-09-28T11:38:40.134Z,5.97
2022-09-28T11:40:16.971Z,6.20
2022-09-28T11:41:41.628Z,8.38
2022-09-28T11:43:18.392Z,8.57
2022-09-28T11:44:40.009Z,6.63
2022-09-28T11:45:59.315Z,6.53
2022-09-28T11:47:35.763Z,6.93
2022-09-28T11:48:51.084Z,8.98
2022-09-28T11:50:23.009Z,5.20
2022-09-28T11:51:36.295Z,5.53
2022-09-28T11:52:57.343Z,7.65
2022-09-28T11:54:14.175Z,5.35
2022-09-28T11:55:24.850Z,5.45
2022-09-28T11:56:39.747Z,5.65
2022-09-28T11:57:46.423Z,6.38
2022-09-28T11:58:55.839Z,5.72
2022-09-28T12:00:22.273Z,5.97
2022-09-28T12:01:58.363Z,6.13
2022-09-28T12:03:26.988Z,4.65
2022-09-28T12:04:37.937Z,5.13
2022-09-28T12:05:49.720Z,6.40
2022-09-28T12:07:20.619Z,4.68
2022-09-28T12:08:30.356Z,6.25
2022-09-28T12:09:44.040Z,3.70
2022-09-28T12:11:05.905Z,4.35
2022-09-28T12:12:42.393Z,5.53
2022-09-28T12:13:49.650Z,2.75
2022-09-28T12:14:57.208Z,4.80
2022-09-28T12:17:57.292Z,3.35
2022-09-28T12:19:01.809Z,2.88
2022-09-28T12:20:16.757Z,3.40
2022-09-28T12:21:24.743Z,3.53
2022-09-28T12:22:40.549Z,3.40
2022-09-28T12:23:44.244Z,3.45
2022-09-28T12:24:50.864Z,3.28
2022-09-28T12:26:03.168Z,2.83
2022-09-28T12:27:14.387Z,2.10
2022-09-28T12:28:43.863Z,1.80
2022-09-28T12:29:47.510Z,2.22
2022-09-28T12:30:50.189Z,1.58
2022-09-28T12:32:02.255Z,1.90
2022-09-28T12:33:09.262Z,1.67
2022-09-28T12:34:11.502Z,3.30
2022-09-28T12:35:18.699Z,2.22
2022-09-28T12:36:30.237Z,1.80
2022-09-28T12:37:41.666Z,2.20
2022-09-28T12:39:08.362Z,4.55
2022-09-28T12:40:20.616Z,1.50
2022-09-28T12:41:34.676Z,4.53
2022-09-28T12:42:44.303Z,1.40
2022-09-28T12:44:06.661Z,1.55
2022-09-28T12:45:27.776Z,1.92
2022-09-28T12:46:48.880Z,2.47
2022-09-28T12:47:57.200Z,1.67
2022-09-28T12:49:51.583Z,3.72
2022-09-28T12:50:57.170Z,3.45
2022-09-28T12:52:33.747Z,3.47
2022-09-28T12:53:51.312Z,1.65
2022-09-28T12:55:13.494Z,2.97
2022-09-28T12:56:26.112Z,3.55
2022-09-28T12:57:43.360Z,2.97
2022-09-28T12:59:01.018Z,1.15
2022-09-28T13:00:13.205Z,1.00
2022-09-28T13:01:24.225Z,1.33
2022-09-28T13:02:44.939Z,1.50
2022-09-28T13:03:57.705Z,1.80
2022-09-28T13:05:18.137Z,1.58
2022-09-28T13:06:37.092Z,1.40
2022-09-28T13:07:53.156Z,1.88
2022-09-28T13:09:16.444Z,3.17
2022-09-28T13:10:39.886Z,1.70
2022-09-28T13:12:00.850Z,2.17
2022-09-28T13:13:02.883Z,1.52
2022-09-28T13:14:10.840Z,2.03
2022-09-28T13:15:32.076Z,2.05
2022-09-28T13:17:03.237Z,0.98
2022-09-28T13:19:31.944Z,2.25
2022-09-28T13:21:12.031Z,1.45
2022-09-28T13:22:16.654Z,2.70
2022-09-28T13:23:25.513Z,4.32
2022-09-28T13:24:34.014Z,4.65
2022-09-28T13:25:40.948Z,3.78
2022-09-28T13:26:46.255Z,2.00
2022-09-28T13:27:53.629Z,2.28
2022-09-28T13:29:04.317Z,1.60
2022-09-28T13:31:10.878Z,1.40
2022-09-28T13:32:13.826Z,2.15
2022-09-28T13:33:23.141Z,1.63
2022-09-28T13:34:28.844Z,1.73
2022-09-28T13:35:32.065Z,3.00
2022-09-28T13:36:36.938Z,0.88
2022-09-28T13:37:39.047Z,1.42
2022-09-28T13:38:47.445Z,3.83
2022-09-28T13:39:52.580Z,2.63
2022-09-28T13:41:03.846Z,6.70
2022-09-28T13:42:09.252Z,2.83
2022-09-28T13:43:28.710Z,2.50
2022-09-28T13:44:52.123Z,2.67
2022-09-28T13:45:56.520Z,1.58
2022-09-28T13:47:09.916Z,1.60
2022-09-28T13:48:20.537Z,1.38
2022-09-28T13:51:20.870Z,3.55
2022-09-28T13:52:34.528Z,4.18
2022-09-28T13:53:58.769Z,1.83
2022-09-28T13:55:14.576Z,3.88
2022-09-28T13:56:34.136Z,3.00
2022-09-28T13:57:54.685Z,3.38
2022-09-28T13:59:23.698Z,2.70
2022-09-28T14:00:28.403Z,4.00
2022-09-28T14:01:37.815Z,7.35
2022-09-28T14:02:45.506Z,2.67
2022-09-28T14:04:20.711Z,1.50
2022-09-28T14:05:22.940Z,1.35
2022-09-28T14:06:31.056Z,1.98
2022-09-28T14:07:35.853Z,1.55
2022-09-28T14:08:39.310Z,1.13
2022-09-28T14:09:44.361Z,1.80
2022-09-28T14:10:51.849Z,1.10
2022-09-28T14:12:02.348Z,2.78
2022-09-28T14:13:06.602Z,3.30
2022-09-28T14:14:11.853Z,1.88
2022-09-28T14:15:37.100Z,1.77
2022-09-28T14:16:41.634Z,65.57
2022-09-28T14:17:43.848Z,7.20
2022-09-28T14:18:52.820Z,18.15
2022-09-28T14:20:15.874Z,2.95
2022-09-28T14:21:32.090Z,2.42
2022-09-28T14:22:51.630Z,5.43
2022-09-28T14:24:23.055Z,12.02
2022-09-28T14:25:28.858Z,3.30
2022-09-28T14:27:08.406Z,3.25
2022-09-28T14:28:31.725Z,1.60
2022-09-28T14:29:39.150Z,0.85
2022-09-28T14:30:41.373Z,3.10
2022-09-28T14:31:45.358Z,1.20
2022-09-28T14:32:56.959Z,2.58
2022-09-28T14:34:02.041Z,1.00
2022-09-28T14:35:18.853Z,1.85
2022-09-28T14:36:53.979Z,2.63
2022-09-28T14:38:19.292Z,0.98
2022-09-28T14:39:52.488Z,4.47
2022-09-28T14:41:11.373Z,4.53
2022-09-28T14:42:17.491Z,7.88
2022-09-28T14:43:26.123Z,3.10
2022-09-28T14:44:28.348Z,4.28
2022-09-28T14:45:35.892Z,2.97
2022-09-28T14:46:42.958Z,1.55
2022-09-28T14:48:11.396Z,1.52
2022-09-28T14:49:20.007Z,16.55
2022-09-28T14:50:22.402Z,35.20
2022-09-28T14:51:24.638Z,12.85
2022-09-28T14:52:40.462Z,30.23
2022-09-28T14:53:42.796Z,7.25
2022-09-28T14:54:54.297Z,43.97
2022-09-28T14:55:59.752Z,9.55
2022-09-28T14:57:15.400Z,11.10
2022-09-28T14:58:22.413Z,10.32
2022-09-28T14:59:42.854Z,30.35
2022-09-28T15:00:47.252Z,4.80
2022-09-28T15:01:58.050Z,8.55
2022-09-28T15:04:11.291Z,14.65
2022-09-28T15:05:22.981Z,24.15
2022-09-28T15:06:29.035Z,11.65
2022-09-28T15:07:47.988Z,6.18
2022-09-28T15:08:50.356Z,35.85
2022-09-28T15:09:57.888Z,5.18
2022-09-28T15:11:01.978Z,10.52
2022-09-28T15:12:19.854Z,12.45
2022-09-28T15:13:28.543Z,1.60
2022-09-28T15:14:34.217Z,4.93
2022-09-28T15:15:41.120Z,2.53
2022-09-28T15:16:43.455Z,2.10
2022-09-28T15:17:52.852Z,1.75
2022-09-28T15:19:01.409Z,3.72
2022-09-28T15:20:21.401Z,3.45
2022-09-28T15:21:31.806Z,1.13
2022-09-28T15:22:34.268Z,1.95
2022-09-28T15:23:40.276Z,6.85
2022-09-28T15:24:53.598Z,5.25
2022-09-28T15:25:56.390Z,11.15
2022-09-28T15:27:03.650Z,5.00
2022-09-28T15:28:19.387Z,0.90
2022-09-28T15:29:23.061Z,4.03
2022-09-28T15:30:27.071Z,1.60
2022-09-28T15:31:35.044Z,0.65
2022-09-28T15:32:37.324Z,2.80
2022-09-28T15:33:59.837Z,1.27
2022-09-28T15:35:35.720Z,1.02
2022-09-28T15:36:40.944Z,1.77
2022-09-28T15:37:44.904Z,1.95
2022-09-28T15:38:55.571Z,1.38
2022-09-28T15:41:05.741Z,20.20
2022-09-28T15:42:08.253Z,72.00
2022-09-28T15:43:29.154Z,16.75
2022-09-28T15:44:38.490Z,9.63
2022-09-28T15:46:02.718Z,51.92
2022-09-28T15:47:13.935Z,1.92
2022-09-28T15:48:37.325Z,21.52
2022-09-28T15:49:41.721Z,17.20
2022-09-28T15:51:10.253Z,40.83
2022-09-28T15:52:25.754Z,54.13
2022-09-28T15:53:28.445Z,46.15
2022-09-28T15:54:43.893Z,8.63
2022-09-28T15:55:50.323Z,2.60
2022-09-28T15:56:55.364Z,1.77
2022-09-28T15:58:13.295Z,58.97
2022-09-28T15:59:15.485Z,13.88
2022-09-28T16:00:25.499Z,11.98
2022-09-28T16:01:36.480Z,195.63